createdAt,value
2017-04-20T00:00:26.046Z,0
2017-04-20T00:01:26.386Z,0
2017-04-20T00:02:26.017Z,0
2017-04-20T00:03:26.008Z,0
2017-04-20T00:04:25.840Z,0
2017-04-20T00:05:25.971Z,0
2017-04-20T00:06:26.263Z,0
2017-04-20T00:07:25.942Z,0
2017-04-20T00:08:25.628Z,0
2017-04-20T00:09:25.920Z,0
2017-04-20T00:10:25.897Z,0
2017-04-20T00:11:25.837Z,0
2017-04-20T00:12:25.870Z,0
2017-04-20T00:13:25.855Z,0
2017-04-20T00:14:25.856Z,0
2017-04-20T00:15:25.824Z,0
2017-04-20T00:16:25.756Z,0
2017-04-20T00:17:25.792Z,0
2017-04-20T00:18:25.780Z,0
2017-04-20T00:19:25.765Z,0
2017-04-20T00:20:25.749Z,0
2017-04-20T00:21:26.075Z,0
2017-04-20T00:22:25.724Z,0
2017-04-20T00:23:25.706Z,0
2017-04-20T00:24:25.690Z,0
2017-04-20T00:25:25.375Z,0
2017-04-20T00:26:25.913Z,0
2017-04-20T00:27:25.344Z,0
2017-04-20T00:28:25.641Z,0
2017-04-20T00:29:25.320Z,0
2017-04-20T00:30:25.605Z,0
2017-04-20T00:31:25.833Z,0
2017-04-20T00:32:25.274Z,0
2017-04-20T00:33:25.559Z,0
2017-04-20T00:34:25.541Z,0
2017-04-20T00:35:25.525Z,0
2017-04-20T00:36:25.813Z,0
2017-04-20T00:37:25.497Z,0
2017-04-20T00:38:25.477Z,0
2017-04-20T00:39:25.551Z,0
2017-04-20T00:40:25.615Z,0
2017-04-20T00:41:25.686Z,0
2017-04-20T00:42:25.423Z,0
2017-04-20T00:43:25.405Z,0
2017-04-20T00:44:25.393Z,0
2017-04-20T00:45:25.372Z,0
2017-04-20T00:46:25.608Z,0
2017-04-20T00:47:25.343Z,0
2017-04-20T00:48:25.338Z,0
2017-04-20T00:49:25.320Z,0
2017-04-20T00:50:25.307Z,0
2017-04-20T00:51:25.585Z,0
2017-04-20T00:52:25.268Z,0
2017-04-20T00:53:25.253Z,0
2017-04-20T00:54:25.238Z,0
2017-04-20T00:55:25.229Z,0
2017-04-20T00:56:25.459Z,0
2017-04-20T00:57:25.340Z,0
2017-04-20T00:58:25.179Z,0
2017-04-20T00:59:25.168Z,0
2017-04-20T01:00:25.147Z,0
2017-04-20T01:01:25.381Z,0
2017-04-20T01:02:25.118Z,0
2017-04-20T01:03:25.099Z,0
2017-04-20T01:04:25.083Z,0
2017-04-20T01:05:25.070Z,0
2017-04-20T01:06:25.056Z,0
2017-04-20T01:07:25.046Z,0
2017-04-20T01:08:24.720Z,0
2017-04-20T01:09:25.010Z,0
2017-04-20T01:10:24.996Z,0
2017-04-20T01:11:24.979Z,0
2017-04-20T01:12:24.962Z,0
2017-04-20T01:13:24.946Z,0
2017-04-20T01:14:24.934Z,0
2017-04-20T01:15:24.925Z,0
2017-04-20T01:16:24.901Z,0
2017-04-20T01:17:24.888Z,0
2017-04-20T01:18:24.873Z,0
2017-04-20T01:19:24.854Z,0
2017-04-20T01:20:24.839Z,0
2017-04-20T01:21:24.824Z,0
2017-04-20T01:22:24.809Z,0
2017-04-20T01:23:24.804Z,0
2017-04-20T01:24:24.841Z,0
2017-04-20T01:25:24.762Z,0
2017-04-20T01:26:24.748Z,0
2017-04-20T01:27:24.733Z,0
2017-04-20T01:28:24.718Z,0
2017-04-20T01:29:24.700Z,0
2017-04-20T01:30:24.687Z,0
2017-04-20T01:31:24.674Z,0
2017-04-20T01:32:24.957Z,0
2017-04-20T01:33:24.640Z,0
2017-04-20T01:34:24.624Z,0
2017-04-20T01:35:24.613Z,0
2017-04-20T01:36:24.595Z,0
2017-04-20T01:37:24.827Z,0
2017-04-20T01:38:24.561Z,0
2017-04-20T01:39:24.551Z,0
2017-04-20T01:40:24.530Z,0
2017-04-20T01:41:24.518Z,0
2017-04-20T01:42:24.509Z,0
2017-04-20T01:43:24.181Z,0
2017-04-20T01:44:24.470Z,0
2017-04-20T01:45:24.151Z,0
2017-04-20T01:46:24.438Z,0
2017-04-20T01:47:24.683Z,0
2017-04-20T01:48:24.411Z,0
2017-04-20T01:49:24.093Z,0
2017-04-20T01:50:24.379Z,0
2017-04-20T01:51:24.363Z,0
2017-04-20T01:52:24.392Z,0
2017-04-20T01:53:24.348Z,0
2017-04-20T01:54:24.018Z,0
2017-04-20T01:55:24.302Z,0
2017-04-20T01:56:24.285Z,0
2017-04-20T01:57:24.521Z,0
2017-04-20T01:58:24.256Z,0
2017-04-20T01:59:23.937Z,0
2017-04-20T02:00:24.294Z,0
2017-04-20T02:01:24.209Z,0
2017-04-20T02:02:24.442Z,0
2017-04-20T02:03:24.178Z,0
2017-04-20T02:04:24.170Z,0
2017-04-20T02:05:24.144Z,0
2017-04-20T02:06:24.130Z,0
2017-04-20T02:07:24.374Z,0
2017-04-20T02:08:23.797Z,0
2017-04-20T02:09:24.088Z,0
2017-04-20T02:10:24.067Z,0
2017-04-20T02:11:24.056Z,0
2017-04-20T02:12:24.338Z,0
2017-04-20T02:13:24.020Z,0
2017-04-20T02:14:24.008Z,0
2017-04-20T02:15:23.993Z,0
2017-04-20T02:16:23.977Z,0
2017-04-20T02:17:24.211Z,0
2017-04-20T02:18:23.945Z,0
2017-04-20T02:19:23.929Z,0
2017-04-20T02:20:23.912Z,0
2017-04-20T02:21:23.899Z,0
2017-04-20T02:22:24.182Z,0
2017-04-20T02:23:23.868Z,0
2017-04-20T02:24:23.851Z,0
2017-04-20T02:25:23.532Z,0
2017-04-20T02:26:23.661Z,0
2017-04-20T02:27:23.850Z,0
2017-04-20T02:28:23.796Z,0
2017-04-20T02:29:23.776Z,0
2017-04-20T02:30:23.756Z,0
2017-04-20T02:31:23.739Z,0
2017-04-20T02:32:23.975Z,0
2017-04-20T02:33:23.711Z,0
2017-04-20T02:34:23.698Z,0
2017-04-20T02:35:23.828Z,0
2017-04-20T02:36:23.662Z,0
2017-04-20T02:37:23.961Z,0
2017-04-20T02:38:23.631Z,0
2017-04-20T02:39:23.622Z,0
2017-04-20T02:40:23.297Z,0
2017-04-20T02:41:23.587Z,0
2017-04-20T02:42:23.875Z,0
2017-04-20T02:43:23.559Z,0
2017-04-20T02:44:23.538Z,0
2017-04-20T02:45:23.520Z,0
2017-04-20T02:46:23.505Z,0
2017-04-20T02:47:23.738Z,0
2017-04-20T02:48:23.476Z,0
2017-04-20T02:49:23.465Z,0
2017-04-20T02:50:23.443Z,0
2017-04-20T02:51:23.427Z,0
2017-04-20T02:52:23.663Z,0
2017-04-20T02:53:23.260Z,0
2017-04-20T02:54:22.779Z,0
2017-04-20T02:55:23.362Z,0
2017-04-20T02:56:23.346Z,0
2017-04-20T02:57:23.584Z,0
2017-04-20T02:58:23.327Z,0
2017-04-20T02:59:23.310Z,0
2017-04-20T03:00:23.284Z,0
2017-04-20T03:01:23.438Z,0
2017-04-20T03:02:23.608Z,0
2017-04-20T03:03:23.244Z,0
2017-04-20T03:04:22.919Z,0
2017-04-20T03:05:23.214Z,0
2017-04-20T03:06:23.188Z,0
2017-04-20T03:07:23.525Z,0
2017-04-20T03:08:23.162Z,0
2017-04-20T03:09:22.841Z,0
2017-04-20T03:10:23.435Z,0
2017-04-20T03:11:23.117Z,0
2017-04-20T03:12:23.100Z,0
2017-04-20T03:13:23.081Z,0
2017-04-20T03:14:23.068Z,0
2017-04-20T03:15:23.052Z,0
2017-04-20T03:16:23.031Z,0
2017-04-20T03:17:23.018Z,4
2017-04-20T03:18:23.004Z,4
2017-04-20T03:19:22.987Z,0
2017-04-20T03:20:23.003Z,0
2017-04-20T03:21:22.958Z,4
2017-04-20T03:22:22.937Z,0
2017-04-20T03:23:22.925Z,4
2017-04-20T03:24:22.910Z,4
2017-04-20T03:26:22.873Z,8
2017-04-20T03:27:22.864Z,8
2017-04-20T03:28:22.849Z,8
2017-04-20T03:29:22.833Z,12
2017-04-20T03:30:22.815Z,12
2017-04-20T03:31:22.796Z,16
2017-04-20T03:32:22.779Z,16
2017-04-20T03:33:22.462Z,16
2017-04-20T03:34:22.747Z,24
2017-04-20T03:35:22.732Z,24
2017-04-20T03:36:22.746Z,28
2017-04-20T03:37:22.702Z,36
2017-04-20T03:38:22.992Z,40
2017-04-20T03:39:22.676Z,44
2017-04-20T03:40:22.683Z,52
2017-04-20T03:41:22.637Z,60
2017-04-20T03:42:22.618Z,68
2017-04-20T03:43:22.854Z,76
2017-04-20T03:44:22.823Z,88
2017-04-20T03:45:22.274Z,100
2017-04-20T03:46:22.254Z,116
2017-04-20T03:47:22.543Z,132
2017-04-20T03:48:22.782Z,144
2017-04-20T03:49:22.513Z,164
2017-04-20T03:50:22.492Z,212
2017-04-20T03:51:22.478Z,240
2017-04-20T03:52:22.462Z,268
2017-04-20T03:53:22.704Z,296
2017-04-20T03:54:22.431Z,320
2017-04-20T03:55:22.413Z,352
2017-04-20T03:56:22.093Z,384
2017-04-20T03:57:22.079Z,420
2017-04-20T03:58:22.622Z,452
2017-04-20T03:59:22.353Z,492
2017-04-20T04:00:22.334Z,528
2017-04-20T04:01:22.770Z,572
2017-04-20T04:02:22.303Z,616
2017-04-20T04:03:22.539Z,664
2017-04-20T04:04:22.301Z,708
2017-04-20T04:05:22.261Z,720
2017-04-20T04:06:22.238Z,772
2017-04-20T04:07:22.223Z,824
2017-04-20T04:08:22.256Z,880
2017-04-20T04:09:22.196Z,936
2017-04-20T04:10:22.177Z,996
2017-04-20T04:11:22.158Z,1056
2017-04-20T04:12:22.142Z,1120
2017-04-20T04:13:22.389Z,1180
2017-04-20T04:14:22.112Z,1248
2017-04-20T04:15:22.100Z,1332
2017-04-20T04:16:22.079Z,1432
2017-04-20T04:17:22.065Z,1516
2017-04-20T04:18:22.585Z,1604
2017-04-20T04:19:22.039Z,1680
2017-04-20T04:20:22.016Z,1740
2017-04-20T04:21:21.697Z,1856
2017-04-20T04:22:21.988Z,2040
2017-04-20T04:23:22.319Z,2248
2017-04-20T04:24:21.954Z,2444
2017-04-20T04:25:21.662Z,2628
2017-04-20T04:26:21.369Z,2808
2017-04-20T04:27:22.202Z,2980
2017-04-20T04:28:22.206Z,3144
2017-04-20T04:29:21.877Z,3288
2017-04-20T04:30:21.864Z,3420
2017-04-20T04:31:21.883Z,3616
2017-04-20T04:32:21.529Z,3808
2017-04-20T04:33:22.072Z,3992
2017-04-20T04:34:21.805Z,4228
2017-04-20T04:35:22.046Z,4420
2017-04-20T04:36:21.785Z,4552
2017-04-20T04:37:21.762Z,4624
2017-04-20T04:38:22.055Z,4764
2017-04-20T04:39:21.739Z,5036
2017-04-20T04:40:21.724Z,5288
2017-04-20T04:41:21.709Z,5636
2017-04-20T04:42:21.697Z,5772
2017-04-20T04:43:21.937Z,5980
2017-04-20T04:44:21.492Z,6296
2017-04-20T04:45:21.358Z,6384
2017-04-20T04:46:21.345Z,6708
2017-04-20T04:47:21.646Z,6588
2017-04-20T04:48:21.576Z,6516
2017-04-20T04:49:21.616Z,6900
2017-04-20T04:50:21.601Z,7120
2017-04-20T04:51:21.592Z,7824
2017-04-20T04:52:21.612Z,8156
2017-04-20T04:53:21.923Z,8312
2017-04-20T04:54:21.561Z,8488
2017-04-20T04:55:21.553Z,8628
2017-04-20T04:56:21.547Z,8860
2017-04-20T04:57:21.230Z,8852
2017-04-20T04:58:21.833Z,9364
2017-04-20T04:59:21.517Z,9416
2017-04-20T05:00:21.623Z,9744
2017-04-20T05:01:21.499Z,10108
2017-04-20T05:02:21.488Z,9892
2017-04-20T05:03:21.780Z,10404
2017-04-20T05:04:21.472Z,10812
2017-04-20T05:05:21.463Z,10216
2017-04-20T05:06:21.458Z,10624
2017-04-20T05:07:21.452Z,10936
2017-04-20T05:08:21.742Z,10816
2017-04-20T05:09:21.529Z,11352
2017-04-20T05:10:21.429Z,11872
2017-04-20T05:11:21.422Z,12488
2017-04-20T05:12:21.417Z,12804
2017-04-20T05:13:21.661Z,12876
2017-04-20T05:14:21.403Z,13536
2017-04-20T05:15:21.402Z,13920
2017-04-20T05:16:21.390Z,13632
2017-04-20T05:17:21.387Z,13952
2017-04-20T05:18:21.690Z,14720
2017-04-20T05:19:21.374Z,15296
2017-04-20T05:20:21.374Z,15744
2017-04-20T05:21:21.362Z,15456
2017-04-20T05:22:21.359Z,15744
2017-04-20T05:23:21.654Z,16864
2017-04-20T05:24:21.352Z,16864
2017-04-20T05:25:21.348Z,16800
2017-04-20T05:26:21.415Z,17152
2017-04-20T05:27:21.340Z,17568
2017-04-20T05:28:21.580Z,18976
2017-04-20T05:29:21.327Z,19104
2017-04-20T05:30:21.329Z,18912
2017-04-20T05:31:21.319Z,19616
2017-04-20T05:32:21.020Z,20000
2017-04-20T05:33:21.562Z,19648
2017-04-20T05:34:21.311Z,19008
2017-04-20T05:35:21.312Z,17248
2017-04-20T05:36:22.220Z,15232
2017-04-20T05:38:20.996Z,17984
2017-04-20T05:39:21.299Z,16768
2017-04-20T05:40:21.299Z,17728
2017-04-20T05:41:21.290Z,15968
2017-04-20T05:42:21.293Z,13760
2017-04-20T05:43:21.435Z,15552
2017-04-20T05:44:21.286Z,19104
2017-04-20T05:45:20.983Z,17088
2017-04-20T05:46:20.978Z,18496
2017-04-20T05:47:20.975Z,19552
2017-04-20T05:48:20.978Z,18112
2017-04-20T05:49:21.525Z,17760
2017-04-20T05:50:20.970Z,17120
2017-04-20T05:51:20.969Z,23360
2017-04-20T05:52:20.972Z,20928
2017-04-20T05:53:21.272Z,16672
2017-04-20T05:54:21.215Z,15936
2017-04-20T05:55:21.270Z,16288
2017-04-20T05:56:21.269Z,19488
2017-04-20T05:57:21.266Z,18688
2017-04-20T05:58:21.263Z,27968
2017-04-20T05:59:28.613Z,28096
2017-04-20T06:00:21.332Z,27424
2017-04-20T06:01:21.257Z,29728
2017-04-20T06:02:21.456Z,31072
2017-04-20T06:03:20.952Z,31840
2017-04-20T06:04:21.508Z,31200
2017-04-20T06:05:21.255Z,28512
2017-04-20T06:06:20.949Z,25952
2017-04-20T06:07:20.948Z,24960
2017-04-20T06:08:21.250Z,24864
2017-04-20T06:09:21.546Z,25408
2017-04-20T06:10:21.250Z,25280
2017-04-20T06:11:20.943Z,23040
2017-04-20T06:12:21.247Z,19456
2017-04-20T06:13:21.247Z,18048
2017-04-20T06:14:21.497Z,17216
2017-04-20T06:15:20.950Z,17472
2017-04-20T06:16:21.248Z,18144
2017-04-20T06:17:20.937Z,18400
2017-04-20T06:18:21.241Z,18848
2017-04-20T06:19:21.491Z,20032
2017-04-20T06:20:21.244Z,20928
2017-04-20T06:21:21.239Z,21920
2017-04-20T06:22:21.238Z,22848
2017-04-20T06:23:21.240Z,24416
2017-04-20T06:24:21.582Z,25152
2017-04-20T06:25:21.311Z,26336
2017-04-20T06:26:21.231Z,29952
2017-04-20T06:27:21.230Z,34976
2017-04-20T06:28:21.228Z,39168
2017-04-20T06:29:21.475Z,39744
2017-04-20T06:30:20.922Z,38016
2017-04-20T06:31:21.247Z,40480
2017-04-20T06:32:21.223Z,44032
2017-04-20T06:33:21.411Z,49248
2017-04-20T06:34:21.471Z,53664
2017-04-20T06:35:23.645Z,55840
2017-04-20T06:36:21.215Z,60128
2017-04-20T06:37:23.645Z,62400
2017-04-20T06:38:21.221Z,62336
2017-04-20T06:39:21.466Z,60448
2017-04-20T06:40:21.214Z,64640
2017-04-20T06:41:21.405Z,73696
2017-04-20T06:42:20.909Z,83968
2017-04-20T06:43:21.214Z,87104
2017-04-20T06:44:21.465Z,82240
2017-04-20T06:45:21.215Z,75168
2017-04-20T06:46:21.219Z,61408
2017-04-20T06:47:21.225Z,50816
2017-04-20T06:48:21.214Z,47232
2017-04-20T06:49:21.212Z,47360
2017-04-20T06:50:21.217Z,51296
2017-04-20T06:51:21.267Z,52032
2017-04-20T06:52:21.224Z,56416
2017-04-20T06:53:21.221Z,48448
2017-04-20T06:54:21.521Z,60992
2017-04-20T06:55:21.224Z,52288
2017-04-20T06:56:21.255Z,53408
2017-04-20T06:57:21.276Z,50880
2017-04-20T06:58:21.231Z,47712
2017-04-20T06:59:21.483Z,43648
2017-04-20T07:00:21.234Z,41280
2017-04-20T07:01:20.933Z,37888
2017-04-20T07:02:20.934Z,36384
2017-04-20T07:03:21.239Z,36928
2017-04-20T07:04:21.543Z,36800
2017-04-20T07:05:21.244Z,36832
2017-04-20T07:06:21.245Z,34304
2017-04-20T07:07:21.265Z,32480
2017-04-20T07:08:21.251Z,34624
2017-04-20T07:09:21.254Z,37984
2017-04-20T07:10:21.259Z,40672
2017-04-20T07:11:21.261Z,41216
2017-04-20T07:12:21.268Z,41920
2017-04-20T07:13:21.274Z,43232
2017-04-20T07:14:21.530Z,45088
2017-04-20T07:15:21.277Z,46368
2017-04-20T07:16:21.283Z,47264
2017-04-20T07:17:20.984Z,48096
2017-04-20T07:18:21.292Z,48640
2017-04-20T07:19:21.598Z,49056
2017-04-20T07:20:21.305Z,49088
2017-04-20T07:21:21.308Z,46176
2017-04-20T07:22:21.315Z,45280
2017-04-20T07:23:21.617Z,46336
2017-04-20T07:24:21.338Z,47744
2017-04-20T07:25:21.023Z,50368
2017-04-20T07:26:21.332Z,55680
2017-04-20T07:27:21.336Z,58880
2017-04-20T07:28:21.361Z,61632
2017-04-20T07:29:21.343Z,64736
2017-04-20T07:30:21.357Z,67680
2017-04-20T07:31:21.569Z,68096
2017-04-20T07:32:21.363Z,68736
2017-04-20T07:33:21.367Z,69408
2017-04-20T07:34:21.622Z,68032
2017-04-20T07:35:21.377Z,65472
2017-04-20T07:36:21.383Z,63104
2017-04-20T07:37:21.388Z,63904
2017-04-20T07:38:21.088Z,65600
2017-04-20T07:39:21.441Z,66976
2017-04-20T07:40:21.405Z,70400
2017-04-20T07:41:21.108Z,83136
2017-04-20T07:42:21.117Z,94336
2017-04-20T07:43:21.119Z,95200
2017-04-20T07:44:21.678Z,90816
2017-04-20T07:45:21.137Z,90880
2017-04-20T07:46:21.443Z,96384
2017-04-20T07:47:21.148Z,100640
2017-04-20T07:48:21.529Z,101152
2017-04-20T07:49:21.714Z,92800
2017-04-20T07:50:21.472Z,84480
2017-04-20T07:51:21.480Z,86016
2017-04-20T07:52:20.882Z,91456
2017-04-20T07:53:21.191Z,95008
2017-04-20T07:54:21.798Z,94976
2017-04-20T07:55:21.203Z,92384
2017-04-20T07:56:21.215Z,93088
2017-04-20T07:57:21.527Z,22176
2017-04-20T07:58:21.533Z,91904
2017-04-20T07:59:21.789Z,90144
2017-04-20T08:00:21.547Z,76672
2017-04-20T08:01:21.250Z,62688
2017-04-20T08:02:21.265Z,60096
2017-04-20T08:03:21.576Z,64832
2017-04-20T08:04:21.878Z,66624
2017-04-20T08:05:21.589Z,65920
2017-04-20T08:06:21.592Z,63200
2017-04-20T08:07:21.304Z,16064
2017-04-20T08:08:21.608Z,56512
2017-04-20T08:09:21.663Z,56576
2017-04-20T08:10:21.622Z,59360
2017-04-20T08:11:21.649Z,62464
2017-04-20T08:12:21.333Z,64704
2017-04-20T08:13:21.338Z,45280
2017-04-20T08:14:21.679Z,40032
2017-04-20T08:15:21.349Z,31968
2017-04-20T08:16:21.661Z,15920
2017-04-20T08:17:21.358Z,56096
2017-04-20T08:18:21.369Z,58784
2017-04-20T08:19:21.925Z,58528
2017-04-20T08:20:21.682Z,59744
2017-04-20T08:21:21.682Z,60640
2017-04-20T08:22:21.693Z,63392
2017-04-20T08:23:21.694Z,63776
2017-04-20T08:24:21.944Z,60992
2017-04-20T08:25:21.389Z,59072
2017-04-20T08:26:21.397Z,60800
2017-04-20T08:27:21.398Z,63424
2017-04-20T08:28:21.400Z,63328
2017-04-20T08:29:21.656Z,47616
2017-04-20T08:30:21.854Z,18592
2017-04-20T08:31:21.107Z,8900
2017-04-20T08:32:21.725Z,8816
2017-04-20T08:33:21.720Z,8836
2017-04-20T08:34:21.367Z,8948
2017-04-20T08:35:21.721Z,9284
2017-04-20T08:36:21.417Z,9276
2017-04-20T08:37:21.721Z,9332
2017-04-20T08:38:21.719Z,9156
2017-04-20T08:39:21.974Z,9092
2017-04-20T08:40:21.413Z,9488
2017-04-20T08:41:21.415Z,10004
2017-04-20T08:42:21.412Z,9888
2017-04-20T08:43:21.111Z,10028
2017-04-20T08:44:21.105Z,10172
2017-04-20T08:45:21.709Z,10348
2017-04-20T08:46:21.107Z,10356
2017-04-20T08:47:21.540Z,10412
2017-04-20T08:48:21.089Z,9576
2017-04-20T08:49:21.085Z,10108
2017-04-20T08:50:21.388Z,11548
2017-04-20T08:51:21.680Z,11356
2017-04-20T08:52:21.682Z,11816
2017-04-20T08:53:21.681Z,10456
2017-04-20T08:54:21.666Z,10904
2017-04-20T08:55:21.726Z,11460
2017-04-20T08:56:21.655Z,10968
2017-04-20T08:57:21.351Z,10080
2017-04-20T08:58:21.352Z,9372
2017-04-20T08:59:21.640Z,10204
2017-04-20T09:00:21.939Z,11864
2017-04-20T09:01:21.634Z,11928
2017-04-20T09:02:21.319Z,12528
2017-04-20T09:03:21.624Z,14056
2017-04-20T09:04:21.413Z,15628
2017-04-20T09:05:21.248Z,15724
2017-04-20T09:06:21.297Z,15124
2017-04-20T09:07:21.595Z,14944
2017-04-20T09:08:21.609Z,13888
2017-04-20T09:09:21.277Z,13824
2017-04-20T09:10:21.821Z,13092
2017-04-20T09:11:21.266Z,13320
2017-04-20T09:12:21.463Z,12480
2017-04-20T09:13:21.553Z,12512
2017-04-20T09:14:21.246Z,13632
2017-04-20T09:15:21.237Z,14252
2017-04-20T09:16:21.235Z,14200
2017-04-20T09:17:21.224Z,13340
2017-04-20T09:18:21.214Z,13196
2017-04-20T09:19:21.513Z,12436
2017-04-20T09:20:21.873Z,13004
2017-04-20T09:21:21.197Z,12124
2017-04-20T09:22:21.190Z,11244
2017-04-20T09:23:21.486Z,10536
2017-04-20T09:24:21.181Z,10152
2017-04-20T09:25:21.779Z,9492
2017-04-20T09:26:21.477Z,9120
2017-04-20T09:27:21.159Z,9376
2017-04-20T09:28:21.601Z,9912
2017-04-20T09:29:21.145Z,11044
2017-04-20T09:30:21.789Z,12372
2017-04-20T09:31:21.130Z,12484
2017-04-20T09:32:21.129Z,11600
2017-04-20T09:33:21.123Z,10196
2017-04-20T09:34:21.115Z,10068
2017-04-20T09:35:21.656Z,10680
2017-04-20T09:36:20.793Z,11420
2017-04-20T09:37:20.565Z,12024
2017-04-20T09:38:21.084Z,12744
2017-04-20T09:39:21.076Z,13004
2017-04-20T09:40:21.325Z,12900
2017-04-20T09:41:21.363Z,12780
2017-04-20T09:42:21.057Z,13060
2017-04-20T09:43:20.749Z,13744
2017-04-20T09:44:21.346Z,14320
2017-04-20T09:45:21.640Z,14832
2017-04-20T09:46:21.329Z,14400
2017-04-20T09:47:21.671Z,14152
2017-04-20T09:48:21.316Z,14304
2017-04-20T09:49:21.316Z,15072
2017-04-20T09:50:21.350Z,16016
2017-04-20T09:51:21.298Z,16928
2017-04-20T09:52:21.290Z,16992
2017-04-20T09:53:21.284Z,16124
2017-04-20T09:54:21.414Z,15096
2017-04-20T09:55:21.521Z,14328
2017-04-20T09:56:20.963Z,14224
2017-04-20T09:57:20.958Z,13364
2017-04-20T09:58:21.255Z,12440
2017-04-20T09:59:20.943Z,12164
2017-04-20T10:00:21.493Z,11932
2017-04-20T10:01:20.947Z,11572
2017-04-20T10:02:21.504Z,11612
2017-04-20T10:03:21.229Z,11404
2017-04-20T10:04:20.915Z,11440
2017-04-20T10:05:21.461Z,12592
2017-04-20T10:06:21.209Z,13144
2017-04-20T10:07:21.204Z,13852
2017-04-20T10:08:21.195Z,14348
2017-04-20T10:09:21.188Z,14288
2017-04-20T10:10:21.197Z,13860
2017-04-20T10:11:20.883Z,12488
2017-04-20T10:12:21.175Z,11260
2017-04-20T10:13:20.869Z,10332
2017-04-20T10:14:21.161Z,10140
2017-04-20T10:15:21.456Z,10568
2017-04-20T10:16:20.847Z,11120
2017-04-20T10:17:20.835Z,11208
2017-04-20T10:18:21.134Z,10660
2017-04-20T10:19:20.827Z,10032
2017-04-20T10:20:21.372Z,9648
2017-04-20T10:21:21.114Z,9548
2017-04-20T10:22:21.114Z,9352
2017-04-20T10:23:20.800Z,9004
2017-04-20T10:24:21.097Z,9320
2017-04-20T10:25:21.043Z,9776
2017-04-20T10:26:20.781Z,10484
2017-04-20T10:27:21.374Z,11008
2017-04-20T10:28:20.768Z,11752
2017-04-20T10:29:20.762Z,12708
2017-04-20T10:30:21.007Z,13556
2017-04-20T10:31:20.757Z,13576
2017-04-20T10:32:20.444Z,13828
2017-04-20T10:33:20.441Z,15020
2017-04-20T10:34:20.431Z,16864
2017-04-20T10:35:21.025Z,18272
2017-04-20T10:36:21.023Z,18944
2017-04-20T10:37:20.439Z,18048
2017-04-20T10:38:20.405Z,18144
2017-04-20T10:39:20.706Z,17792
2017-04-20T10:40:20.947Z,16928
2017-04-20T10:41:20.688Z,15896
2017-04-20T10:42:20.685Z,14832
2017-04-20T10:43:20.677Z,14680
2017-04-20T10:44:20.704Z,14340
2017-04-20T10:45:20.920Z,14284
2017-04-20T10:46:20.665Z,14336
2017-04-20T10:47:20.354Z,14172
2017-04-20T10:48:20.954Z,14564
2017-04-20T10:49:20.949Z,14884
2017-04-20T10:50:21.292Z,14424
2017-04-20T10:51:20.633Z,15156
2017-04-20T10:52:21.024Z,15996
2017-04-20T10:53:20.927Z,16184
2017-04-20T10:54:20.614Z,15880
2017-04-20T10:55:21.222Z,15432
2017-04-20T10:56:20.605Z,14100
2017-04-20T10:57:20.903Z,15364
2017-04-20T10:58:20.594Z,14840
2017-04-20T10:59:20.588Z,14948
2017-04-20T11:00:20.884Z,14532
2017-04-20T11:01:20.583Z,14060
2017-04-20T11:02:20.579Z,12464
2017-04-20T11:03:20.872Z,10852
2017-04-20T11:04:20.564Z,9944
2017-04-20T11:05:20.577Z,9352
2017-04-20T11:06:20.563Z,9000
2017-04-20T11:07:20.548Z,9168
2017-04-20T11:08:20.545Z,9328
2017-04-20T11:09:20.644Z,9568
2017-04-20T11:10:20.783Z,9724
2017-04-20T11:11:20.838Z,9804
2017-04-20T11:12:20.526Z,10108
2017-04-20T11:13:20.824Z,10508
2017-04-20T11:14:20.511Z,10888
2017-04-20T11:15:19.897Z,10912
2017-04-20T11:16:20.500Z,11072
2017-04-20T11:17:20.794Z,11428
2017-04-20T11:18:20.485Z,12028
2017-04-20T11:19:20.789Z,13180
2017-04-20T11:20:20.788Z,14164
2017-04-20T11:21:20.774Z,14380
2017-04-20T11:22:20.464Z,13620
2017-04-20T11:23:20.761Z,12896
2017-04-20T11:24:20.461Z,12764
2017-04-20T11:25:20.750Z,13120
2017-04-20T11:26:20.615Z,13700
2017-04-20T11:27:19.826Z,13792
2017-04-20T11:28:20.427Z,14164
2017-04-20T11:29:20.427Z,14336
2017-04-20T11:30:20.724Z,14532
2017-04-20T11:31:20.716Z,14488
2017-04-20T11:32:20.403Z,13704
2017-04-20T11:33:20.705Z,13180
2017-04-20T11:34:20.702Z,12200
2017-04-20T11:35:20.391Z,11476
2017-04-20T11:36:20.685Z,10756
2017-04-20T11:37:20.684Z,10704
2017-04-20T11:38:20.072Z,10736
2017-04-20T11:39:20.669Z,10560
2017-04-20T11:40:20.666Z,10000
2017-04-20T11:41:20.656Z,9788
2017-04-20T11:42:20.352Z,9712
2017-04-20T11:43:20.344Z,9348
2017-04-20T11:44:20.369Z,9248
2017-04-20T11:45:20.337Z,9488
2017-04-20T11:46:20.984Z,9840
2017-04-20T11:47:20.628Z,9932
2017-04-20T11:48:20.626Z,9964
2017-04-20T11:49:20.316Z,10516
2017-04-20T11:50:20.616Z,11788
2017-04-20T11:51:20.300Z,13196
2017-04-20T11:52:20.598Z,14716
2017-04-20T11:53:20.594Z,16512
2017-04-20T11:54:20.283Z,18016
2017-04-20T11:55:20.279Z,18784
2017-04-20T11:56:20.220Z,18368
2017-04-20T11:57:19.966Z,18048
2017-04-20T11:58:20.260Z,17824
2017-04-20T11:59:20.261Z,17408
2017-04-20T12:00:20.258Z,17248
2017-04-20T12:01:20.501Z,16704
2017-04-20T12:02:20.245Z,15524
2017-04-20T12:03:20.546Z,14644
2017-04-20T12:04:20.535Z,13744
2017-04-20T12:05:19.921Z,13200
2017-04-20T12:06:20.527Z,12716
2017-04-20T12:07:20.255Z,12476
2017-04-20T12:08:20.236Z,12316
2017-04-20T12:09:20.208Z,11992
2017-04-20T12:10:20.202Z,11748
2017-04-20T12:11:20.496Z,11240
2017-04-20T12:12:20.491Z,10508
2017-04-20T12:13:20.496Z,9972
2017-04-20T12:14:20.184Z,9848
2017-04-20T12:15:20.486Z,10116
2017-04-20T12:16:20.269Z,10460
2017-04-20T12:17:20.163Z,10884
2017-04-20T12:18:20.159Z,10984
2017-04-20T12:19:20.153Z,11492
2017-04-20T12:20:20.145Z,12352
2017-04-20T12:21:20.392Z,13432
2017-04-20T12:22:20.440Z,14544
2017-04-20T12:23:20.432Z,15516
2017-04-20T12:24:20.635Z,16608
2017-04-20T12:25:20.120Z,16736
2017-04-20T12:26:20.665Z,16288
2017-04-20T12:27:20.106Z,15564
2017-04-20T12:28:20.406Z,14844
2017-04-20T12:29:20.401Z,14252
2017-04-20T12:30:20.088Z,13776
2017-04-20T12:31:20.645Z,13368
2017-04-20T12:32:20.595Z,13108
2017-04-20T12:33:20.378Z,13160
2017-04-20T12:34:20.069Z,13352
2017-04-20T12:35:20.368Z,13472
2017-04-20T12:36:20.659Z,13528
2017-04-20T12:37:20.359Z,13584
2017-04-20T12:38:20.350Z,13976
2017-04-20T12:39:20.041Z,13768
2017-04-20T12:40:20.244Z,13872
2017-04-20T12:41:20.634Z,13708
2017-04-20T12:42:20.334Z,13816
2017-04-20T12:43:20.019Z,14272
2017-04-20T12:44:20.014Z,14756
2017-04-20T12:45:20.314Z,15344
2017-04-20T12:46:20.255Z,15808
2017-04-20T12:47:19.999Z,16160
2017-04-20T12:48:19.995Z,16512
2017-04-20T12:49:20.074Z,16704
2017-04-20T12:50:20.290Z,16832
2017-04-20T12:51:20.233Z,17152
2017-04-20T12:52:20.279Z,17440
2017-04-20T12:53:20.273Z,17568
2017-04-20T12:54:19.967Z,17504
2017-04-20T12:55:19.961Z,17440
2017-04-20T12:56:20.006Z,17408
2017-04-20T12:57:19.985Z,17376
2017-04-20T12:58:19.646Z,16992
2017-04-20T12:59:20.248Z,16128
2017-04-20T13:00:20.245Z,15004
2017-04-20T13:01:19.890Z,14220
2017-04-20T13:02:20.235Z,13640
2017-04-20T13:03:20.232Z,13092
2017-04-20T13:04:20.231Z,12516
2017-04-20T13:05:20.241Z,12076
2017-04-20T13:06:20.470Z,11552
2017-04-20T13:07:19.910Z,11180
2017-04-20T13:08:20.210Z,11028
2017-04-20T13:09:19.902Z,10708
2017-04-20T13:10:19.900Z,10604
2017-04-20T13:11:20.496Z,10524
2017-04-20T13:12:20.199Z,10640
2017-04-20T13:13:20.195Z,10868
2017-04-20T13:14:20.184Z,10916
2017-04-20T13:15:20.181Z,10804
2017-04-20T13:16:20.478Z,10872
2017-04-20T13:17:20.172Z,10940
2017-04-20T13:18:19.870Z,11148
2017-04-20T13:19:19.863Z,11264
2017-04-20T13:20:19.861Z,11464
2017-04-20T13:21:19.850Z,11624
2017-04-20T13:22:19.880Z,12092
2017-04-20T13:23:19.857Z,12344
2017-04-20T13:24:20.145Z,12836
2017-04-20T13:25:20.138Z,13404
2017-04-20T13:26:20.130Z,13992
2017-04-20T13:27:19.826Z,14764